This is the latest recevied weather packets stored in our database for station/object EA4BCR. If no packets are shown the sender has not sent any weather packets the latest 10 day(s).
| Time | Temp. | Humidity | Pressure | Rain* | Wind** | Luminosity | Snow |
|---|---|---|---|---|---|---|---|
| 1787607012 | 22.78° C | 51% | 1013.6 hPa | - | - | - | - |
| 1787606413 | 22.22° C | 53% | 1013.7 hPa | - | - | - | - |
| 1787605812 | 22.78° C | 52% | 1013.6 hPa | - | - | - | - |
| 1787605212 | 22.78° C | 50% | 1013.6 hPa | - | - | - | - |
| 1787604612 | 22.78° C | 49% | 1013.2 hPa | - | - | - | - |
| 1787604012 | 22.78° C | 50% | 1013.1 hPa | - | - | - | - |
| 1787603412 | 22.78° C | 48% | 1013.1 hPa | - | - | - | - |
| 1787602812 | 22.78° C | 48% | 1013 hPa | - | - | - | - |
| 1787602212 | 22.78° C | 48% | 1012.9 hPa | - | - | - | - |
| 1787601611 | 23.33° C | 47% | 1012.4 hPa | - | - | - | - |
| 1787601012 | 23.33° C | 46% | 1012.3 hPa | - | - | - | - |
| 1787600412 | 23.89° C | 44% | 1011.8 hPa | - | - | - | - |
| 1787599812 | 23.89° C | 43% | 1011.8 hPa | - | - | - | - |
| 1787599211 | 23.89° C | 44% | 1011.7 hPa | - | - | - | - |
| 1787598612 | 23.33° C | 44% | 1011.8 hPa | - | - | - | - |
| 1787598011 | 23.89° C | 43% | 1011.6 hPa | - | - | - | - |
| 1787597411 | 23.89° C | 42% | 1011.5 hPa | - | - | - | - |
| 1787596812 | 23.89° C | 42% | 1011.4 hPa | - | - | - | - |
| 1787596212 | 24.44° C | 41% | 1011.2 hPa | - | - | - | - |
| 1787595612 | 25° C | 40% | 1011 hPa | - | - | - | - |
| 1787595012 | 25° C | 39% | 1011 hPa | - | - | - | - |
| 1787594412 | 25° C | 38% | 1011 hPa | - | - | - | - |
| 1787593812 | 25.56° C | 36% | 1010.7 hPa | - | - | - | - |
| 1787593212 | 25° C | 36% | 1011 hPa | - | - | - | - |
| 1787592612 | 25.56° C | 35% | 1010.7 hPa | - | - | - | - |
* Rain since midnight (hover to see other rain measurements)
** Current wind speed in m/s (hover to see current wind gust speed)